Las Bayas, Argentina
Current Conditions -  °F | °C
As of 5:00 PM on Saturday 20 Dec 2014 (Local Time) from SAZS Reporting Station
Rain Showers Rain Showers  
Wind Chill: 52°   Ceiling: Unl
Heat Index: 52°   Visibility: 6mi
Dew Point: 28°   Wind: 25mph
Humidity: 41%   Direction: 320°NW
Pressure: 29.88"   Gusts: NA
Location:  41.29°S, 70.7°W
Report Text: SAZS 202000Z 32022KT 9000 VCSH SCT025 SCT030 11/M02 Q1012
Loading
Personal Weather Stations






























Interactive Weather Map New forecast layout! Learn more

10-Day Weather Forecast

Advertisements
Track Severe Weather on mobile